sensor_id;sensor_type;location;lat;lon;timestamp;pressure;altitude;pressure_sealevel;temperature;humidity
23473;BME280;11909;52.516;13.564;2022-07-05T00:00:02;101259.75;;;17.39;59.57
23473;BME280;11909;52.516;13.564;2022-07-05T00:02:29;101258.38;;;17.28;59.81
23473;BME280;11909;52.516;13.564;2022-07-05T00:04:55;101261.72;;;17.39;59.58
23473;BME280;11909;52.516;13.564;2022-07-05T00:07:22;101261.22;;;17.37;59.56
23473;BME280;11909;52.516;13.564;2022-07-05T00:09:51;101258.50;;;17.23;59.71
23473;BME280;11909;52.516;13.564;2022-07-05T00:12:20;101264.25;;;17.12;60.21
23473;BME280;11909;52.516;13.564;2022-07-05T00:14:47;101262.41;;;17.22;60.05
23473;BME280;11909;52.516;13.564;2022-07-05T00:17:14;101264.59;;;17.11;60.40
23473;BME280;11909;52.516;13.564;2022-07-05T00:19:41;101266.31;;;17.06;60.31
23473;BME280;11909;52.516;13.564;2022-07-05T00:22:08;101274.66;;;17.06;60.36
23473;BME280;11909;52.516;13.564;2022-07-05T00:24:35;101265.66;;;17.01;60.78
23473;BME280;11909;52.516;13.564;2022-07-05T00:27:04;101267.66;;;16.95;61.42
23473;BME280;11909;52.516;13.564;2022-07-05T00:29:30;101269.31;;;16.96;61.27
23473;BME280;11909;52.516;13.564;2022-07-05T00:31:57;101277.03;;;16.99;61.07
23473;BME280;11909;52.516;13.564;2022-07-05T00:34:24;101277.88;;;17.00;60.96
23473;BME280;11909;52.516;13.564;2022-07-05T00:36:50;101274.47;;;17.03;61.04
23473;BME280;11909;52.516;13.564;2022-07-05T00:39:17;101272.00;;;17.01;61.11
23473;BME280;11909;52.516;13.564;2022-07-05T00:41:43;101268.91;;;17.03;60.98
23473;BME280;11909;52.516;13.564;2022-07-05T00:44:11;101276.50;;;16.97;61.53
23473;BME280;11909;52.516;13.564;2022-07-05T00:46:39;101279.69;;;16.90;61.78
23473;BME280;11909;52.516;13.564;2022-07-05T00:49:07;101275.38;;;16.84;62.34
23473;BME280;11909;52.516;13.564;2022-07-05T00:51:35;101277.78;;;16.77;62.65
23473;BME280;11909;52.516;13.564;2022-07-05T00:54:05;101280.03;;;16.75;62.78
23473;BME280;11909;52.516;13.564;2022-07-05T00:56:32;101284.22;;;16.86;62.45
23473;BME280;11909;52.516;13.564;2022-07-05T00:58:58;101293.56;;;16.76;62.40
23473;BME280;11909;52.516;13.564;2022-07-05T01:01:27;101289.25;;;16.70;62.41
23473;BME280;11909;52.516;13.564;2022-07-05T01:03:54;101290.50;;;16.64;62.49
23473;BME280;11909;52.516;13.564;2022-07-05T01:06:20;101292.34;;;16.55;62.87
23473;BME280;11909;52.516;13.564;2022-07-05T01:08:47;101293.97;;;16.56;62.91
23473;BME280;11909;52.516;13.564;2022-07-05T01:11:14;101295.44;;;16.53;63.06
23473;BME280;11909;52.516;13.564;2022-07-05T01:13:41;101292.84;;;16.57;62.86
23473;BME280;11909;52.516;13.564;2022-07-05T01:16:08;101295.94;;;16.55;63.29
23473;BME280;11909;52.516;13.564;2022-07-05T01:18:36;101295.31;;;16.58;63.26
23473;BME280;11909;52.516;13.564;2022-07-05T01:21:02;101294.91;;;16.51;63.75
23473;BME280;11909;52.516;13.564;2022-07-05T01:23:31;101295.84;;;16.46;63.45
23473;BME280;11909;52.516;13.564;2022-07-05T01:26:00;101299.50;;;16.28;64.36
23473;BME280;11909;52.516;13.564;2022-07-05T01:28:27;101301.16;;;16.29;63.99
23473;BME280;11909;52.516;13.564;2022-07-05T01:30:54;101297.75;;;16.32;63.65
23473;BME280;11909;52.516;13.564;2022-07-05T01:33:26;101295.38;;;16.25;64.48
23473;BME280;11909;52.516;13.564;2022-07-05T01:35:53;101297.34;;;16.25;64.47
23473;BME280;11909;52.516;13.564;2022-07-05T01:38:19;101295.31;;;16.30;64.17
23473;BME280;11909;52.516;13.564;2022-07-05T01:40:47;101290.19;;;16.24;65.06
23473;BME280;11909;52.516;13.564;2022-07-05T01:43:17;101289.56;;;16.27;64.93
23473;BME280;11909;52.516;13.564;2022-07-05T01:45:44;101288.94;;;16.30;65.04
23473;BME280;11909;52.516;13.564;2022-07-05T01:48:13;101293.78;;;16.38;64.40
23473;BME280;11909;52.516;13.564;2022-07-05T01:50:45;101284.88;;;16.41;63.78
23473;BME280;11909;52.516;13.564;2022-07-05T01:53:15;101286.91;;;16.49;63.90
23473;BME280;11909;52.516;13.564;2022-07-05T01:55:43;101288.53;;;16.51;63.56
23473;BME280;11909;52.516;13.564;2022-07-05T01:58:11;101288.53;;;16.51;63.38
23473;BME280;11909;52.516;13.564;2022-07-05T02:00:45;101289.06;;;16.53;63.43
23473;BME280;11909;52.516;13.564;2022-07-05T02:03:12;101279.31;;;16.41;64.40
23473;BME280;11909;52.516;13.564;2022-07-05T02:05:39;101285.06;;;16.45;64.39
23473;BME280;11909;52.516;13.564;2022-07-05T02:08:06;101283.53;;;16.53;63.76
23473;BME280;11909;52.516;13.564;2022-07-05T02:10:34;101281.38;;;16.49;63.74
23473;BME280;11909;52.516;13.564;2022-07-05T02:13:01;101279.94;;;16.52;63.08
23473;BME280;11909;52.516;13.564;2022-07-05T02:15:30;101281.25;;;16.55;63.21
23473;BME280;11909;52.516;13.564;2022-07-05T02:17:57;101269.25;;;16.45;63.64
23473;BME280;11909;52.516;13.564;2022-07-05T02:20:23;101282.28;;;16.45;63.40
23473;BME280;11909;52.516;13.564;2022-07-05T02:22:50;101281.78;;;16.43;63.40
23473;BME280;11909;52.516;13.564;2022-07-05T02:25:16;101277.16;;;16.38;63.56
23473;BME280;11909;52.516;13.564;2022-07-05T02:27:43;101273.78;;;16.27;63.73
23473;BME280;11909;52.516;13.564;2022-07-05T02:30:10;101279.09;;;16.24;63.92
23473;BME280;11909;52.516;13.564;2022-07-05T02:32:38;101279.19;;;16.18;63.82
23473;BME280;11909;52.516;13.564;2022-07-05T02:35:05;101281.25;;;16.13;64.13
23473;BME280;11909;52.516;13.564;2022-07-05T02:37:33;101279.09;;;16.10;64.05
23473;BME280;11909;52.516;13.564;2022-07-05T02:40:00;101278.47;;;16.13;63.54
23473;BME280;11909;52.516;13.564;2022-07-05T02:42:26;101285.03;;;16.17;63.20
23473;BME280;11909;52.516;13.564;2022-07-05T02:44:53;101285.44;;;16.10;63.38
23473;BME280;11909;52.516;13.564;2022-07-05T02:47:19;101286.78;;;16.13;63.14
23473;BME280;11909;52.516;13.564;2022-07-05T02:49:47;101282.97;;;16.09;63.38
23473;BME280;11909;52.516;13.564;2022-07-05T02:52:13;101287.16;;;16.06;63.57
23473;BME280;11909;52.516;13.564;2022-07-05T02:54:40;101288.19;;;16.10;63.47
23473;BME280;11909;52.516;13.564;2022-07-05T02:57:06;101285.94;;;16.12;63.33
23473;BME280;11909;52.516;13.564;2022-07-05T02:59:33;101289.34;;;16.23;62.99
23473;BME280;11909;52.516;13.564;2022-07-05T03:01:59;101288.25;;;16.38;62.77
23473;BME280;11909;52.516;13.564;2022-07-05T03:04:26;101293.28;;;16.50;62.30
23473;BME280;11909;52.516;13.564;2022-07-05T03:06:53;101296.34;;;16.62;62.20
23473;BME280;11909;52.516;13.564;2022-07-05T03:09:20;101288.44;;;16.70;61.93
23473;BME280;11909;52.516;13.564;2022-07-05T03:11:46;101291.41;;;16.73;61.62
23473;BME280;11909;52.516;13.564;2022-07-05T03:14:13;101293.97;;;16.70;62.03
23473;BME280;11909;52.516;13.564;2022-07-05T03:16:39;101294.19;;;16.73;62.12
23473;BME280;11909;52.516;13.564;2022-07-05T03:19:06;101299.50;;;16.70;62.78
23473;BME280;11909;52.516;13.564;2022-07-05T03:21:32;101299.84;;;16.68;62.74
23473;BME280;11909;52.516;13.564;2022-07-05T03:24:00;101305.69;;;16.67;63.05
23473;BME280;11909;52.516;13.564;2022-07-05T03:26:26;101303.53;;;16.77;62.85
23473;BME280;11909;52.516;13.564;2022-07-05T03:28:53;101297.25;;;16.86;62.89
23473;BME280;11909;52.516;13.564;2022-07-05T03:31:19;101307.41;;;16.90;63.07
23473;BME280;11909;52.516;13.564;2022-07-05T03:33:46;101305.06;;;16.98;63.08
23473;BME280;11909;52.516;13.564;2022-07-05T03:36:12;101301.97;;;16.99;63.17
23473;BME280;11909;52.516;13.564;2022-07-05T03:38:39;101308.66;;;16.98;63.47
23473;BME280;11909;52.516;13.564;2022-07-05T03:41:07;101313.78;;;17.05;63.56
23473;BME280;11909;52.516;13.564;2022-07-05T03:43:33;101317.28;;;17.11;63.38
23473;BME280;11909;52.516;13.564;2022-07-05T03:45:59;101309.25;;;17.09;63.33
23473;BME280;11909;52.516;13.564;2022-07-05T03:48:26;101323.13;;;17.09;63.09
23473;BME280;11909;52.516;13.564;2022-07-05T03:50:53;101322.50;;;17.12;63.30
23473;BME280;11909;52.516;13.564;2022-07-05T03:53:19;101322.50;;;17.12;63.01
23473;BME280;11909;52.516;13.564;2022-07-05T03:55:46;101327.53;;;17.10;62.82
23473;BME280;11909;52.516;13.564;2022-07-05T03:58:14;101332.78;;;17.12;62.92
23473;BME280;11909;52.516;13.564;2022-07-05T04:00:40;101338.63;;;17.10;63.05
23473;BME280;11909;52.516;13.564;2022-07-05T04:03:07;101342.88;;;17.08;62.96
23473;BME280;11909;52.516;13.564;2022-07-05T04:05:33;101342.88;;;17.08;63.24
23473;BME280;11909;52.516;13.564;2022-07-05T04:08:00;101343.88;;;17.12;63.20
23473;BME280;11909;52.516;13.564;2022-07-05T04:10:26;101342.25;;;17.11;63.36
23473;BME280;11909;52.516;13.564;2022-07-05T04:12:53;101338.03;;;16.99;63.61
23473;BME280;11909;52.516;13.564;2022-07-05T04:15:21;101340.25;;;16.97;63.90
23473;BME280;11909;52.516;13.564;2022-07-05T04:17:49;101337.09;;;17.04;63.96
23473;BME280;11909;52.516;13.564;2022-07-05T04:20:16;101341.19;;;17.06;63.76
23473;BME280;11909;52.516;13.564;2022-07-05T04:22:42;101335.13;;;17.04;64.05
23473;BME280;11909;52.516;13.564;2022-07-05T04:25:10;101342.25;;;17.11;64.27
23473;BME280;11909;52.516;13.564;2022-07-05T04:27:42;101340.47;;;17.15;64.91
23473;BME280;11909;52.516;13.564;2022-07-05T04:30:10;101350.13;;;17.17;64.66
23473;BME280;11909;52.516;13.564;2022-07-05T04:32:38;101362.47;;;17.11;64.57
23473;BME280;11909;52.516;13.564;2022-07-05T04:35:05;101355.78;;;17.12;64.28
23473;BME280;11909;52.516;13.564;2022-07-05T04:37:31;101358.13;;;17.19;63.93
23473;BME280;11909;52.516;13.564;2022-07-05T04:39:58;101353.19;;;17.30;63.75
23473;BME280;11909;52.516;13.564;2022-07-05T04:42:24;101356.34;;;17.37;63.21
23473;BME280;11909;52.516;13.564;2022-07-05T04:44:51;101362.41;;;17.39;62.44
23473;BME280;11909;52.516;13.564;2022-07-05T04:47:17;101359.88;;;17.29;62.21
23473;BME280;11909;52.516;13.564;2022-07-05T04:49:45;101364.06;;;17.26;62.20
23473;BME280;11909;52.516;13.564;2022-07-05T04:52:12;101363.91;;;17.23;62.22
23473;BME280;11909;52.516;13.564;2022-07-05T04:54:38;101377.31;;;17.29;62.37
23473;BME280;11909;52.516;13.564;2022-07-05T04:57:05;101374.75;;;17.33;61.81
23473;BME280;11909;52.516;13.564;2022-07-05T04:59:31;101379.66;;;17.36;61.59
23473;BME280;11909;52.516;13.564;2022-07-05T05:01:58;101385.94;;;17.42;61.42
23473;BME280;11909;52.516;13.564;2022-07-05T05:04:24;101391.38;;;17.47;61.50
23473;BME280;11909;52.516;13.564;2022-07-05T05:06:52;101398.97;;;17.55;61.24
23473;BME280;11909;52.516;13.564;2022-07-05T05:09:18;101403.38;;;17.56;60.66
23473;BME280;11909;52.516;13.564;2022-07-05T05:11:46;101409.03;;;17.65;60.46
23473;BME280;11909;52.516;13.564;2022-07-05T05:14:12;101411.97;;;17.69;59.99
23473;BME280;11909;52.516;13.564;2022-07-05T05:16:39;101410.31;;;17.68;59.84
23473;BME280;11909;52.516;13.564;2022-07-05T05:19:06;101410.03;;;17.69;59.97
23473;BME280;11909;52.516;13.564;2022-07-05T05:21:32;101411.34;;;17.72;59.83
23473;BME280;11909;52.516;13.564;2022-07-05T05:24:00;101414.31;;;17.75;59.53
23473;BME280;11909;52.516;13.564;2022-07-05T05:26:27;101422.84;;;17.79;59.32
23473;BME280;11909;52.516;13.564;2022-07-05T05:28:53;101408.66;;;17.81;59.36
23473;BME280;11909;52.516;13.564;2022-07-05T05:31:20;101413.78;;;17.87;60.04
23473;BME280;11909;52.516;13.564;2022-07-05T05:33:46;101412.00;;;17.91;59.70
23473;BME280;11909;52.516;13.564;2022-07-05T05:36:13;101418.56;;;17.96;59.41
23473;BME280;11909;52.516;13.564;2022-07-05T05:38:39;101416.63;;;17.96;59.46
23473;BME280;11909;52.516;13.564;2022-07-05T05:41:07;101421.03;;;17.97;59.72
23473;BME280;11909;52.516;13.564;2022-07-05T05:43:34;101430.09;;;18.03;59.63
23473;BME280;11909;52.516;13.564;2022-07-05T05:46:00;101432.41;;;18.10;58.92
23473;BME280;11909;52.516;13.564;2022-07-05T05:48:27;101439.00;;;18.14;58.17
23473;BME280;11909;52.516;13.564;2022-07-05T05:50:53;101437.75;;;18.20;58.59
23473;BME280;11909;52.516;13.564;2022-07-05T05:53:20;101436.81;;;18.25;58.05
23473;BME280;11909;52.516;13.564;2022-07-05T05:55:46;101441.59;;;18.33;56.72
23473;BME280;11909;52.516;13.564;2022-07-05T05:58:16;101450.22;;;18.31;56.65
23473;BME280;11909;52.516;13.564;2022-07-05T06:00:43;101451.06;;;18.32;56.25
23473;BME280;11909;52.516;13.564;2022-07-05T06:03:13;101461.22;;;18.37;55.52
23473;BME280;11909;52.516;13.564;2022-07-05T06:05:39;101460.09;;;18.38;55.11
23473;BME280;11909;52.516;13.564;2022-07-05T06:08:06;101456.19;;;18.39;54.94
23473;BME280;11909;52.516;13.564;2022-07-05T06:10:34;101457.19;;;18.43;55.30
23473;BME280;11909;52.516;13.564;2022-07-05T06:13:03;101463.25;;;18.45;55.37
23473;BME280;11909;52.516;13.564;2022-07-05T06:15:32;101460.19;;;18.55;56.07
23473;BME280;11909;52.516;13.564;2022-07-05T06:17:58;101459.28;;;18.69;56.33
23473;BME280;11909;52.516;13.564;2022-07-05T06:20:26;101469.31;;;18.78;55.25
23473;BME280;11909;52.516;13.564;2022-07-05T06:22:54;101472.47;;;18.86;55.08
23473;BME280;11909;52.516;13.564;2022-07-05T06:25:21;101473.44;;;18.90;54.68
23473;BME280;11909;52.516;13.564;2022-07-05T06:27:50;101474.47;;;18.94;53.85
23473;BME280;11909;52.516;13.564;2022-07-05T06:30:18;101486.09;;;18.96;53.57
23473;BME280;11909;52.516;13.564;2022-07-05T06:32:47;101480.19;;;18.98;53.27
23473;BME280;11909;52.516;13.564;2022-07-05T06:35:14;101476.50;;;19.02;53.43
23473;BME280;11909;52.516;13.564;2022-07-05T06:37:42;101480.63;;;19.14;53.66
23473;BME280;11909;52.516;13.564;2022-07-05T06:40:10;101480.66;;;19.23;53.78
23473;BME280;11909;52.516;13.564;2022-07-05T06:42:36;101482.97;;;19.29;53.69
23473;BME280;11909;52.516;13.564;2022-07-05T06:45:04;101478.59;;;19.37;53.42
23473;BME280;11909;52.516;13.564;2022-07-05T06:47:31;101483.19;;;19.42;53.21
23473;BME280;11909;52.516;13.564;2022-07-05T06:49:59;101481.59;;;19.49;53.52
23473;BME280;11909;52.516;13.564;2022-07-05T06:52:28;101480.28;;;19.56;53.34
23473;BME280;11909;52.516;13.564;2022-07-05T06:54:54;101482.25;;;19.64;52.96
23473;BME280;11909;52.516;13.564;2022-07-05T06:57:21;101483.59;;;19.67;52.73
23473;BME280;11909;52.516;13.564;2022-07-05T06:59:49;101481.78;;;19.71;52.61
23473;BME280;11909;52.516;13.564;2022-07-05T07:02:16;101488.03;;;19.76;52.75
23473;BME280;11909;52.516;13.564;2022-07-05T07:04:44;101485.38;;;19.80;52.73
23473;BME280;11909;52.516;13.564;2022-07-05T07:07:12;101489.53;;;19.91;52.50
23473;BME280;11909;52.516;13.564;2022-07-05T07:09:56;101490.53;;;20.04;52.17
23473;BME280;11909;52.516;13.564;2022-07-05T07:12:22;101490.69;;;20.08;52.60
23473;BME280;11909;52.516;13.564;2022-07-05T07:14:49;101481.81;;;20.15;52.70
23473;BME280;11909;52.516;13.564;2022-07-05T07:17:15;101485.28;;;20.20;52.66
23473;BME280;11909;52.516;13.564;2022-07-05T07:19:42;101480.69;;;20.25;52.40
23473;BME280;11909;52.516;13.564;2022-07-05T07:22:08;101482.16;;;20.31;52.69
23473;BME280;11909;52.516;13.564;2022-07-05T07:24:36;101482.13;;;20.40;52.09
23473;BME280;11909;52.516;13.564;2022-07-05T07:27:03;101485.94;;;20.44;51.98
23473;BME280;11909;52.516;13.564;2022-07-05T07:29:30;101480.50;;;20.47;51.53
23473;BME280;11909;52.516;13.564;2022-07-05T07:31:57;101479.81;;;20.51;51.88
23473;BME280;11909;52.516;13.564;2022-07-05T07:34:24;101479.66;;;20.56;51.90
23473;BME280;11909;52.516;13.564;2022-07-05T07:36:51;101485.72;;;20.67;51.95
23473;BME280;11909;52.516;13.564;2022-07-05T07:39:18;101485.66;;;20.75;51.09
23473;BME280;11909;52.516;13.564;2022-07-05T07:41:46;101484.03;;;20.83;50.67
23473;BME280;11909;52.516;13.564;2022-07-05T07:44:13;101487.47;;;20.89;50.89
23473;BME280;11909;52.516;13.564;2022-07-05T07:46:40;101483.34;;;20.95;50.30
23473;BME280;11909;52.516;13.564;2022-07-05T07:49:06;101480.88;;;21.02;50.52
23473;BME280;11909;52.516;13.564;2022-07-05T07:51:34;101479.53;;;21.09;50.08
23473;BME280;11909;52.516;13.564;2022-07-05T07:54:00;101488.19;;;21.16;49.81
23473;BME280;11909;52.516;13.564;2022-07-05T07:56:27;101491.09;;;21.28;49.42
23473;BME280;11909;52.516;13.564;2022-07-05T07:58:55;101496.78;;;21.41;47.81
23473;BME280;11909;52.516;13.564;2022-07-05T08:01:21;101484.13;;;21.43;47.44
23473;BME280;11909;52.516;13.564;2022-07-05T08:03:49;101484.94;;;21.44;47.88
23473;BME280;11909;52.516;13.564;2022-07-05T08:06:15;101487.16;;;21.59;48.47
23473;BME280;11909;52.516;13.564;2022-07-05T08:08:43;101485.81;;;21.66;47.66
23473;BME280;11909;52.516;13.564;2022-07-05T08:11:12;101494.34;;;21.69;46.46
23473;BME280;11909;52.516;13.564;2022-07-05T08:13:39;101494.97;;;21.75;45.53
23473;BME280;11909;52.516;13.564;2022-07-05T08:16:08;101490.66;;;21.77;45.86
23473;BME280;11909;52.516;13.564;2022-07-05T08:18:35;101479.31;;;21.83;46.28
23473;BME280;11909;52.516;13.564;2022-07-05T08:21:19;101477.41;;;21.96;45.82
23473;BME280;11909;52.516;13.564;2022-07-05T08:23:58;101486.03;;;22.03;45.65
23473;BME280;11909;52.516;13.564;2022-07-05T08:26:24;101484.81;;;22.13;44.78
23473;BME280;11909;52.516;13.564;2022-07-05T08:28:51;101480.56;;;22.28;45.04
23473;BME280;11909;52.516;13.564;2022-07-05T08:31:20;101481.03;;;22.30;43.66
23473;BME280;11909;52.516;13.564;2022-07-05T08:33:47;101477.69;;;22.37;44.44
23473;BME280;11909;52.516;13.564;2022-07-05T08:36:13;101481.38;;;22.49;44.75
23473;BME280;11909;52.516;13.564;2022-07-05T08:38:40;101480.81;;;22.56;43.50
23473;BME280;11909;52.516;13.564;2022-07-05T08:41:07;101478.41;;;22.67;43.76
23473;BME280;11909;52.516;13.564;2022-07-05T08:43:35;101490.53;;;22.71;42.00
23473;BME280;11909;52.516;13.564;2022-07-05T08:46:03;101483.31;;;22.70;42.95
23473;BME280;11909;52.516;13.564;2022-07-05T08:48:36;101476.91;;;22.82;41.87
23473;BME280;11909;52.516;13.564;2022-07-05T08:51:08;101482.03;;;22.80;41.20
23473;BME280;11909;52.516;13.564;2022-07-05T08:53:37;101476.44;;;22.92;42.79
23473;BME280;11909;52.516;13.564;2022-07-05T08:56:04;101483.81;;;22.97;40.73
23473;BME280;11909;52.516;13.564;2022-07-05T08:58:32;101482.78;;;23.02;41.63
23473;BME280;11909;52.516;13.564;2022-07-05T09:01:00;101480.66;;;23.11;42.72
23473;BME280;11909;52.516;13.564;2022-07-05T09:03:32;101475.22;;;23.27;43.19
23473;BME280;11909;52.516;13.564;2022-07-05T09:06:01;101475.94;;;23.37;41.68
23473;BME280;11909;52.516;13.564;2022-07-05T09:08:30;101478.50;;;23.54;41.27
23473;BME280;11909;52.516;13.564;2022-07-05T09:11:00;101484.78;;;23.63;39.45
23473;BME280;11909;52.516;13.564;2022-07-05T09:13:27;101478.84;;;23.53;40.52
23473;BME280;11909;52.516;13.564;2022-07-05T09:15:54;101476.50;;;23.55;41.01
23473;BME280;11909;52.516;13.564;2022-07-05T09:18:43;101467.38;;;23.70;41.36
23473;BME280;11909;52.516;13.564;2022-07-05T09:21:17;101468.88;;;23.80;42.13
23473;BME280;11909;52.516;13.564;2022-07-05T09:23:44;101474.22;;;23.85;39.25
23473;BME280;11909;52.516;13.564;2022-07-05T09:26:10;101475.84;;;23.86;39.70
23473;BME280;11909;52.516;13.564;2022-07-05T09:28:37;101477.59;;;23.91;40.83
23473;BME280;11909;52.516;13.564;2022-07-05T09:31:04;101471.03;;;23.99;40.37
23473;BME280;11909;52.516;13.564;2022-07-05T09:33:31;101471.38;;;24.10;39.38
23473;BME280;11909;52.516;13.564;2022-07-05T09:35:57;101468.03;;;24.20;40.43
23473;BME280;11909;52.516;13.564;2022-07-05T09:38:26;101465.19;;;24.33;38.81
23473;BME280;11909;52.516;13.564;2022-07-05T09:40:54;101457.88;;;24.44;39.92
23473;BME280;11909;52.516;13.564;2022-07-05T09:43:21;101457.53;;;24.46;38.52
23473;BME280;11909;52.516;13.564;2022-07-05T09:45:56;101470.94;;;24.53;38.79
23473;BME280;11909;52.516;13.564;2022-07-05T09:48:24;101468.31;;;24.60;38.48
23473;BME280;11909;52.516;13.564;2022-07-05T09:50:51;101464.78;;;24.63;38.91
23473;BME280;11909;52.516;13.564;2022-07-05T09:53:18;101454.13;;;24.69;39.59
23473;BME280;11909;52.516;13.564;2022-07-05T09:55:59;101461.22;;;24.79;38.97
23473;BME280;11909;52.516;13.564;2022-07-05T09:58:26;101454.16;;;24.85;39.63
23473;BME280;11909;52.516;13.564;2022-07-05T10:00:53;101460.03;;;24.96;38.48
23473;BME280;11909;52.516;13.564;2022-07-05T10:03:20;101455.69;;;24.98;39.98
23473;BME280;11909;52.516;13.564;2022-07-05T10:05:46;101453.06;;;25.05;40.65
23473;BME280;11909;52.516;13.564;2022-07-05T10:08:13;101469.13;;;25.05;38.54
23473;BME280;11909;52.516;13.564;2022-07-05T10:10:41;101469.28;;;25.12;38.71
23473;BME280;11909;52.516;13.564;2022-07-05T10:13:10;101470.19;;;24.84;36.83
23473;BME280;11909;52.516;13.564;2022-07-05T10:15:37;101482.22;;;24.85;36.52
23473;BME280;11909;52.516;13.564;2022-07-05T10:18:05;101473.44;;;24.86;37.62
23473;BME280;11909;52.516;13.564;2022-07-05T10:20:35;101459.97;;;24.92;37.02
23473;BME280;11909;52.516;13.564;2022-07-05T10:23:07;101478.97;;;25.15;36.77
23473;BME280;11909;52.516;13.564;2022-07-05T10:25:35;101473.91;;;24.88;35.96
23473;BME280;11909;52.516;13.564;2022-07-05T10:28:02;101464.19;;;24.86;36.70
23473;BME280;11909;52.516;13.564;2022-07-05T10:30:31;101470.53;;;24.83;36.35
23473;BME280;11909;52.516;13.564;2022-07-05T10:32:59;101472.53;;;24.98;37.02
23473;BME280;11909;52.516;13.564;2022-07-05T10:35:25;101467.22;;;24.93;37.65
23473;BME280;11909;52.516;13.564;2022-07-05T10:37:52;101473.28;;;24.95;36.95
23473;BME280;11909;52.516;13.564;2022-07-05T10:40:19;101468.53;;;25.15;37.84
23473;BME280;11909;52.516;13.564;2022-07-05T10:42:48;101475.25;;;25.11;37.15
23473;BME280;11909;52.516;13.564;2022-07-05T10:45:28;101468.19;;;25.17;38.51
23473;BME280;11909;52.516;13.564;2022-07-05T10:48:19;101470.56;;;25.15;38.01
23473;BME280;11909;52.516;13.564;2022-07-05T10:50:47;101481.69;;;24.95;35.87
23473;BME280;11909;52.516;13.564;2022-07-05T10:53:15;101474.63;;;25.01;36.71
23473;BME280;11909;52.516;13.564;2022-07-05T10:55:53;101472.09;;;24.96;38.34
23473;BME280;11909;52.516;13.564;2022-07-05T10:58:22;101477.16;;;24.90;36.57
23473;BME280;11909;52.516;13.564;2022-07-05T11:03:53;101460.88;;;24.80;38.14
23473;BME280;11909;52.516;13.564;2022-07-05T11:06:24;101459.84;;;24.72;37.88
23473;BME280;11909;52.516;13.564;2022-07-05T11:09:16;101466.69;;;24.59;37.45
23473;BME280;11909;52.516;13.564;2022-07-05T11:11:43;101464.75;;;24.47;38.04
23473;BME280;11909;52.516;13.564;2022-07-05T11:14:32;101467.56;;;24.47;38.04
23473;BME280;11909;52.516;13.564;2022-07-05T11:17:22;101471.41;;;24.55;37.28
23473;BME280;11909;52.516;13.564;2022-07-05T11:20:11;101457.69;;;24.37;38.35
23473;BME280;11909;52.516;13.564;2022-07-05T11:22:40;101458.94;;;24.24;39.33
23473;BME280;11909;52.516;13.564;2022-07-05T11:25:08;101466.09;;;24.09;38.57
23473;BME280;11909;52.516;13.564;2022-07-05T11:27:36;101464.25;;;24.00;39.66
23473;BME280;11909;52.516;13.564;2022-07-05T11:30:23;101464.75;;;23.90;39.45
23473;BME280;11909;52.516;13.564;2022-07-05T11:32:50;101460.41;;;24.05;40.43
23473;BME280;11909;52.516;13.564;2022-07-05T11:35:19;101449.28;;;24.37;40.20
23473;BME280;11909;52.516;13.564;2022-07-05T11:37:59;101454.94;;;24.69;38.64
23473;BME280;11909;52.516;13.564;2022-07-05T11:40:31;101457.22;;;24.80;37.71
23473;BME280;11909;52.516;13.564;2022-07-05T11:42:58;101453.66;;;24.67;37.71
23473;BME280;11909;52.516;13.564;2022-07-05T11:45:25;101462.72;;;24.60;37.94
23473;BME280;11909;52.516;13.564;2022-07-05T11:47:53;101450.03;;;24.66;37.25
23473;BME280;11909;52.516;13.564;2022-07-05T11:50:27;101439.53;;;24.63;38.41
23473;BME280;11909;52.516;13.564;2022-07-05T11:52:54;101456.19;;;24.72;37.91
23473;BME280;11909;52.516;13.564;2022-07-05T11:55:20;101453.34;;;24.84;37.45
23473;BME280;11909;52.516;13.564;2022-07-05T11:57:51;101449.19;;;24.94;37.81
23473;BME280;11909;52.516;13.564;2022-07-05T12:00:29;101455.78;;;25.18;37.06
23473;BME280;11909;52.516;13.564;2022-07-05T12:02:55;101456.19;;;25.36;36.49
23473;BME280;11909;52.516;13.564;2022-07-05T12:05:22;101442.53;;;25.51;35.30
23473;BME280;11909;52.516;13.564;2022-07-05T12:07:51;101445.81;;;25.72;34.95
23473;BME280;11909;52.516;13.564;2022-07-05T12:10:19;101443.78;;;25.73;35.79
23473;BME280;11909;52.516;13.564;2022-07-05T12:13:05;101443.28;;;25.87;34.66
23473;BME280;11909;52.516;13.564;2022-07-05T12:15:32;101441.34;;;25.91;33.53
23473;BME280;11909;52.516;13.564;2022-07-05T12:18:01;101428.66;;;25.97;35.11
23473;BME280;11909;52.516;13.564;2022-07-05T12:20:31;101442.34;;;26.18;35.02
23473;BME280;11909;52.516;13.564;2022-07-05T12:22:59;101425.91;;;26.20;34.43
23473;BME280;11909;52.516;13.564;2022-07-05T12:25:27;101429.00;;;26.15;35.10
23473;BME280;11909;52.516;13.564;2022-07-05T12:27:56;101436.13;;;25.89;34.04
23473;BME280;11909;52.516;13.564;2022-07-05T12:30:23;101436.47;;;25.68;34.11
23473;BME280;11909;52.516;13.564;2022-07-05T12:32:54;101434.91;;;25.35;34.57
23473;BME280;11909;52.516;13.564;2022-07-05T12:35:34;101427.91;;;24.93;35.08
23473;BME280;11909;52.516;13.564;2022-07-05T12:38:02;101420.03;;;24.83;35.76
23473;BME280;11909;52.516;13.564;2022-07-05T12:40:29;101421.00;;;25.06;38.23
23473;BME280;11909;52.516;13.564;2022-07-05T12:43:07;101418.28;;;25.10;36.79
23473;BME280;11909;52.516;13.564;2022-07-05T12:45:35;101432.69;;;25.09;35.51
23473;BME280;11909;52.516;13.564;2022-07-05T12:48:03;101434.41;;;24.97;33.65